Time;durP1;ratioP1;P1;durP2;ratioP2;P2;SDS_P1;SDS_P2;PMS_P1;PMS_P2;Temp;Humidity;BMP_temperature;BMP_pressure;BME280_temperature;BME280_humidity;BME280_pressure;Samples;Min_cycle;Max_cycle;Signal;HPM_P1;HPM_P2
2023/12/15 00:01:27;;;;;;;14.60;8.93;;;2.00;99.90;;;;;;6247945;23;20189;-88
2023/12/15 00:03:55;;;;;;;11.70;7.73;;;1.90;99.90;;;;;;6249327;22;20173;-90
2023/12/15 00:06:21;;;;;;;10.80;7.10;;;1.90;99.90;;;;;;6247914;23;20145;-89
2023/12/15 00:08:46;;;;;;;10.37;7.90;;;2.00;99.90;;;;;;6247796;23;20211;-89
2023/12/15 00:11:12;;;;;;;13.43;8.93;;;2.00;99.90;;;;;;6249303;23;20434;-88
2023/12/15 00:13:38;;;;;;;13.90;9.23;;;2.00;99.90;;;;;;6249284;22;20238;-89
2023/12/15 00:16:04;;;;;;;12.97;8.70;;;2.10;99.90;;;;;;6247756;23;20188;-89
2023/12/15 00:18:30;;;;;;;14.83;9.57;;;2.10;99.90;;;;;;6247258;23;20546;-89
2023/12/15 00:20:56;;;;;;;14.90;9.37;;;2.10;99.90;;;;;;6248037;23;20157;-89
2023/12/15 00:23:21;;;;;;;18.53;9.73;;;2.20;99.90;;;;;;6247787;23;20200;-89
2023/12/15 00:25:47;;;;;;;13.53;9.70;;;2.20;99.90;;;;;;6247512;23;20188;-88
2023/12/15 00:28:13;;;;;;;15.13;10.07;;;2.30;99.90;;;;;;6249221;23;20149;-89
2023/12/15 00:30:39;;;;;;;14.70;8.80;;;2.30;99.90;;;;;;6249413;22;20209;-89
2023/12/15 00:33:06;;;;;;;14.97;9.70;;;2.30;99.90;;;;;;6247824;23;20267;-89
2023/12/15 00:35:31;;;;;;;14.00;9.33;;;2.30;99.90;;;;;;6247674;23;20157;-90
2023/12/15 00:37:57;;;;;;;16.50;10.30;;;2.30;99.90;;;;;;6249355;22;20576;-89
2023/12/15 00:40:23;;;;;;;18.63;9.50;;;2.30;99.90;;;;;;6247650;23;20177;-89
2023/12/15 00:42:50;;;;;;;17.43;10.37;;;2.30;99.90;;;;;;6247620;23;20159;-89
2023/12/15 00:45:16;;;;;;;18.77;11.43;;;2.40;99.90;;;;;;6247646;23;20255;-89
2023/12/15 00:47:42;;;;;;;16.90;11.30;;;2.40;99.90;;;;;;6247656;23;20161;-89
2023/12/15 00:50:08;;;;;;;18.70;11.13;;;2.40;99.90;;;;;;6247632;23;20153;-89
2023/12/15 00:52:34;;;;;;;17.83;10.77;;;2.50;99.90;;;;;;6247872;23;20185;-89
2023/12/15 00:55:00;;;;;;;18.63;11.57;;;2.50;99.90;;;;;;6249308;22;20477;-90
2023/12/15 00:57:25;;;;;;;19.43;12.33;;;2.50;99.90;;;;;;6247362;23;20204;-90
2023/12/15 00:59:51;;;;;;;18.70;12.40;;;2.50;99.90;;;;;;6247793;23;20467;-90
2023/12/15 01:02:17;;;;;;;19.67;11.93;;;2.50;99.90;;;;;;6247257;23;20159;-89
2023/12/15 01:04:42;;;;;;;20.70;12.23;;;2.60;99.90;;;;;;6247439;23;20168;-89
2023/12/15 01:07:08;;;;;;;22.67;13.10;;;2.60;99.90;;;;;;6248913;23;20149;-89
2023/12/15 01:09:34;;;;;;;23.67;13.50;;;2.60;99.90;;;;;;6247585;23;20628;-90
2023/12/15 01:12:00;;;;;;;20.37;12.43;;;2.60;99.90;;;;;;6248961;23;20173;-90
2023/12/15 01:14:29;;;;;;;22.07;13.00;;;2.60;99.90;;;;;;6249102;22;20181;-90
2023/12/15 01:16:55;;;;;;;21.03;13.20;;;2.70;99.90;;;;;;6248573;22;20129;-90
2023/12/15 01:19:21;;;;;;;24.50;14.50;;;2.70;99.90;;;;;;6247545;23;20211;-90
2023/12/15 01:21:47;;;;;;;26.17;15.60;;;2.70;99.90;;;;;;6247724;23;20157;-90
2023/12/15 01:24:13;;;;;;;20.67;12.83;;;2.70;99.90;;;;;;6247439;23;20201;-90
2023/12/15 01:26:39;;;;;;;18.97;12.37;;;2.70;99.90;;;;;;6247489;23;20161;-91
2023/12/15 01:29:05;;;;;;;25.07;14.73;;;2.70;99.90;;;;;;6249023;22;20448;-90
2023/12/15 01:31:31;;;;;;;22.37;13.20;;;2.70;99.90;;;;;;6247356;23;20181;-90
2023/12/15 01:33:58;;;;;;;23.33;13.83;;;2.70;99.90;;;;;;6246877;23;20169;-89
2023/12/15 01:36:24;;;;;;;25.07;14.37;;;2.70;99.90;;;;;;6247319;23;20199;-89
2023/12/15 01:38:50;;;;;;;23.77;14.70;;;2.60;99.90;;;;;;6247394;23;20472;-89
2023/12/15 01:41:15;;;;;;;27.57;14.40;;;2.60;99.90;;;;;;6247251;23;20154;-90
2023/12/15 01:43:43;;;;;;;22.63;13.33;;;2.60;99.90;;;;;;6248734;23;20149;-90
2023/12/15 01:46:09;;;;;;;27.33;15.43;;;2.60;99.90;;;;;;6247223;23;20153;-89
2023/12/15 01:48:35;;;;;;;28.90;15.77;;;2.50;99.90;;;;;;6248673;22;20247;-89
2023/12/15 01:51:02;;;;;;;27.27;15.70;;;2.50;99.90;;;;;;6247096;23;20165;-89
2023/12/15 01:53:27;;;;;;;27.27;15.07;;;2.50;99.90;;;;;;6246829;23;20193;-89
2023/12/15 01:55:53;;;;;;;30.07;15.97;;;2.50;99.90;;;;;;6249720;22;20168;-90
2023/12/15 01:58:19;;;;;;;28.60;15.83;;;2.50;99.90;;;;;;6279293;22;20214;-92
2023/12/15 02:00:48;;;;;;;27.93;16.37;;;2.50;99.90;;;;;;6252330;22;20506;-89
2023/12/15 02:03:14;;;;;;;25.00;14.57;;;2.40;99.90;;;;;;6251875;22;20153;-90
2023/12/15 02:05:39;;;;;;;32.30;15.70;;;2.40;99.90;;;;;;6251422;22;20161;-90
2023/12/15 02:08:05;;;;;;;26.80;15.90;;;2.40;99.90;;;;;;6279062;22;20232;-92
2023/12/15 02:10:35;;;;;;;28.97;15.33;;;2.40;99.90;;;;;;6251779;22;20157;-91
2023/12/15 02:13:06;;;;;;;29.13;16.50;;;2.40;99.90;;;;;;6252223;22;20193;-89
2023/12/15 02:15:32;;;;;;;31.17;16.33;;;2.40;99.90;;;;;;6278870;22;20141;-89
2023/12/15 02:17:58;;;;;;;25.83;15.10;;;2.30;99.90;;;;;;6278776;22;20148;-89
2023/12/15 02:20:23;;;;;;;28.50;16.20;;;2.30;99.90;;;;;;6251946;22;20231;-89
2023/12/15 02:22:49;;;;;;;28.40;15.43;;;2.30;99.90;;;;;;6251615;22;20248;-88
2023/12/15 02:25:15;;;;;;;27.93;16.23;;;2.30;99.90;;;;;;6251522;22;20156;-89
2023/12/15 02:27:42;;;;;;;24.37;15.23;;;2.30;99.90;;;;;;6252563;22;20540;-89
2023/12/15 02:30:08;;;;;;;27.37;15.60;;;2.30;99.90;;;;;;6279121;22;20156;-88
2023/12/15 02:32:34;;;;;;;28.07;17.37;;;2.30;99.90;;;;;;6251666;22;20591;-89
2023/12/15 02:35:00;;;;;;;28.37;15.90;;;2.40;99.90;;;;;;6251416;22;20582;-89
2023/12/15 02:37:27;;;;;;;31.77;17.87;;;2.40;99.90;;;;;;6251429;22;20247;-86
2023/12/15 02:39:53;;;;;;;29.27;16.80;;;2.40;99.90;;;;;;6252292;22;20184;-89
2023/12/15 02:42:18;;;;;;;32.90;17.23;;;2.40;99.90;;;;;;6251610;22;20581;-89
2023/12/15 02:44:45;;;;;;;33.00;17.30;;;2.40;99.90;;;;;;6251488;22;20160;-88
2023/12/15 02:47:11;;;;;;;31.03;17.60;;;2.50;99.90;;;;;;6251149;22;20156;-88
2023/12/15 02:49:41;;;;;;;33.70;17.20;;;2.50;99.90;;;;;;6226506;22;20194;-88
2023/12/15 02:52:07;;;;;;;33.67;18.00;;;2.50;99.90;;;;;;6251341;22;20192;-88
2023/12/15 02:54:35;;;;;;;34.67;19.27;;;2.60;99.90;;;;;;6251545;22;20467;-89
2023/12/15 02:57:01;;;;;;;40.10;19.90;;;2.60;99.90;;;;;;6246025;23;20208;-89
2023/12/15 02:59:27;;;;;;;40.97;20.73;;;2.70;99.90;;;;;;6246474;23;20157;-88
2023/12/15 03:01:53;;;;;;;37.87;19.40;;;2.70;99.90;;;;;;6248180;23;20235;-88
2023/12/15 03:04:20;;;;;;;35.40;20.77;;;2.80;99.90;;;;;;6245969;23;20569;-88
2023/12/15 03:06:46;;;;;;;37.43;20.60;;;2.80;99.90;;;;;;6246029;23;20157;-89
2023/12/15 03:09:12;;;;;;;35.43;19.87;;;2.80;99.90;;;;;;6247911;22;20153;-88
2023/12/15 03:11:37;;;;;;;36.20;20.43;;;2.80;99.90;;;;;;6247840;23;20476;-89
2023/12/15 03:14:03;;;;;;;33.63;20.00;;;2.80;99.90;;;;;;6246610;23;20206;-89
2023/12/15 03:16:29;;;;;;;34.67;19.80;;;2.80;99.90;;;;;;6247608;23;20138;-89
2023/12/15 03:18:55;;;;;;;38.30;20.10;;;2.80;99.90;;;;;;6248193;23;20188;-89
2023/12/15 03:21:20;;;;;;;38.03;19.23;;;2.80;99.90;;;;;;6250019;22;20457;-89
2023/12/15 03:23:47;;;;;;;35.03;19.87;;;2.80;99.90;;;;;;6249852;22;20149;-89
2023/12/15 03:28:51;;;;;;;39.03;19.77;;;2.80;99.90;;;;;;6278819;22;20206;-83
2023/12/15 03:31:17;;;;;;;34.67;19.90;;;2.80;99.90;;;;;;6311085;22;20470;-83
2023/12/15 03:33:43;;;;;;;37.43;20.03;;;2.90;99.90;;;;;;6284028;22;20170;-83
2023/12/15 03:36:09;;;;;;;39.27;20.30;;;2.90;99.90;;;;;;6284086;22;20238;-84
2023/12/15 03:38:35;;;;;;;34.83;19.80;;;2.90;99.90;;;;;;6284441;22;20167;-84
2023/12/15 03:41:01;;;;;;;38.10;21.17;;;2.90;99.90;;;;;;6284238;22;20152;-86
2023/12/15 03:43:27;;;;;;;43.13;21.13;;;2.90;99.90;;;;;;6283808;22;20220;-84
2023/12/15 03:45:53;;;;;;;40.43;21.00;;;2.90;99.90;;;;;;6284231;22;20250;-85
2023/12/15 03:48:22;;;;;;;39.80;21.37;;;2.90;99.90;;;;;;6283871;22;20152;-84
2023/12/15 03:50:47;;;;;;;44.23;22.13;;;2.90;99.90;;;;;;6284521;22;20209;-85
2023/12/15 03:53:13;;;;;;;42.67;22.40;;;2.90;99.90;;;;;;6284082;22;20188;-85
2023/12/15 03:55:39;;;;;;;39.70;21.77;;;3.00;99.90;;;;;;6283857;22;20200;-84
2023/12/15 03:58:04;;;;;;;40.47;20.73;;;3.00;99.90;;;;;;6283287;22;20164;-88
2023/12/15 04:00:30;;;;;;;46.70;22.03;;;3.00;99.90;;;;;;6284229;22;20156;-86
2023/12/15 04:02:56;;;;;;;42.30;22.40;;;3.10;99.90;;;;;;6283952;22;20152;-85
2023/12/15 04:05:22;;;;;;;44.30;22.50;;;3.00;99.90;;;;;;6311322;22;20231;-85
2023/12/15 04:07:47;;;;;;;40.53;21.87;;;3.10;99.90;;;;;;6311356;22;20487;-86
2023/12/15 04:10:15;;;;;;;46.80;23.80;;;3.10;99.90;;;;;;6312062;22;20175;-84
2023/12/15 04:12:41;;;;;;;43.70;22.63;;;3.10;99.90;;;;;;6310859;22;20172;-88
2023/12/15 04:15:08;;;;;;;39.83;22.20;;;3.10;99.90;;;;;;6284142;22;20193;-87
2023/12/15 04:17:34;;;;;;;43.97;21.90;;;3.10;99.90;;;;;;6283525;22;20179;-86
2023/12/15 04:20:00;;;;;;;41.60;21.93;;;3.10;99.90;;;;;;6284014;22;20151;-87
2023/12/15 04:22:26;;;;;;;42.00;21.60;;;3.20;99.90;;;;;;6284158;22;20144;-85
2023/12/15 04:24:52;;;;;;;40.23;21.37;;;3.10;99.90;;;;;;6283984;22;20152;-86
2023/12/15 04:27:18;;;;;;;45.10;22.20;;;3.20;99.90;;;;;;6278080;22;20191;-86
2023/12/15 04:29:44;;;;;;;41.57;21.60;;;3.20;99.90;;;;;;6279598;22;20147;-85
2023/12/15 04:32:09;;;;;;;42.77;21.27;;;3.20;99.90;;;;;;6278688;22;20211;-86
2023/12/15 04:34:37;;;;;;;45.30;21.53;;;3.20;99.90;;;;;;6279042;22;20431;-86
2023/12/15 04:37:03;;;;;;;40.57;21.50;;;3.20;99.90;;;;;;6278431;22;20249;-85
2023/12/15 04:39:29;;;;;;;45.03;22.50;;;3.20;99.90;;;;;;6278792;22;20152;-85
2023/12/15 04:41:54;;;;;;;39.00;20.17;;;3.20;99.90;;;;;;6278442;22;20552;-85
2023/12/15 04:44:20;;;;;;;38.87;20.93;;;3.20;99.90;;;;;;6278806;22;20202;-85
2023/12/15 04:46:46;;;;;;;41.53;21.27;;;3.20;99.90;;;;;;6278687;22;20221;-87
2023/12/15 04:49:13;;;;;;;42.70;21.37;;;3.20;99.90;;;;;;6278520;22;20164;-85
2023/12/15 04:51:39;;;;;;;42.33;21.90;;;3.20;99.90;;;;;;6278496;22;20176;-85
2023/12/15 04:54:04;;;;;;;40.70;21.93;;;3.30;99.90;;;;;;6278692;22;20168;-85
2023/12/15 04:56:30;;;;;;;37.90;19.77;;;3.30;99.90;;;;;;6277858;22;20157;-84
2023/12/15 04:58:56;;;;;;;40.73;20.40;;;3.30;99.90;;;;;;6278178;22;20161;-84
2023/12/15 05:01:22;;;;;;;39.40;20.83;;;3.30;99.90;;;;;;6278337;22;20145;-84
2023/12/15 05:03:47;;;;;;;37.93;20.60;;;3.30;99.90;;;;;;6278253;22;20222;-85
2023/12/15 05:06:20;;;;;;;39.37;20.53;;;3.30;99.90;;;;;;6278010;22;20564;-86
2023/12/15 05:08:47;;;;;;;38.43;20.80;;;3.40;99.90;;;;;;6278303;22;20572;-85
2023/12/15 05:11:14;;;;;;;38.57;20.90;;;3.30;99.90;;;;;;6277975;22;20152;-86
2023/12/15 05:13:40;;;;;;;42.57;22.00;;;3.40;99.90;;;;;;6278021;22;20579;-85
2023/12/15 05:16:07;;;;;;;36.83;19.73;;;3.30;99.90;;;;;;6277993;22;20184;-84
2023/12/15 05:18:33;;;;;;;42.30;21.23;;;3.40;99.90;;;;;;6278214;22;20446;-84
2023/12/15 05:20:59;;;;;;;43.27;21.57;;;3.40;99.90;;;;;;6278124;22;20156;-84
2023/12/15 05:23:26;;;;;;;39.97;20.07;;;3.40;99.90;;;;;;6279653;22;20169;-84
2023/12/15 05:25:51;;;;;;;38.60;20.47;;;3.40;99.90;;;;;;6277544;22;20255;-85
2023/12/15 05:28:17;;;;;;;39.03;20.33;;;3.40;99.90;;;;;;6277485;22;20814;-85
2023/12/15 05:30:43;;;;;;;42.53;21.43;;;3.40;99.90;;;;;;6277860;22;20156;-85
2023/12/15 05:33:09;;;;;;;38.10;20.43;;;3.40;99.90;;;;;;6277938;22;20263;-85
2023/12/15 05:35:35;;;;;;;39.60;19.43;;;3.40;99.90;;;;;;6277827;22;20230;-85
2023/12/15 05:38:04;;;;;;;39.93;20.57;;;3.40;99.90;;;;;;6277547;22;20164;-83
2023/12/15 05:40:31;;;;;;;41.17;20.37;;;3.40;99.90;;;;;;6276773;22;20187;-84
2023/12/15 05:42:57;;;;;;;41.90;22.37;;;3.40;99.90;;;;;;6277713;22;20156;-84
2023/12/15 05:45:23;;;;;;;44.20;21.40;;;3.40;99.90;;;;;;6277340;22;20157;-84
2023/12/15 05:47:49;;;;;;;44.40;22.43;;;3.40;99.90;;;;;;6277516;22;20476;-86
2023/12/15 05:50:15;;;;;;;53.07;21.90;;;3.40;99.90;;;;;;6276742;22;20157;-85
2023/12/15 05:52:41;;;;;;;46.53;22.07;;;3.40;99.90;;;;;;6277442;22;20275;-85
2023/12/15 05:55:07;;;;;;;45.03;23.23;;;3.40;99.90;;;;;;6277624;22;20180;-86
2023/12/15 05:57:34;;;;;;;45.17;21.93;;;3.40;99.90;;;;;;6252202;22;20548;-85
2023/12/15 06:00:00;;;;;;;42.20;21.50;;;3.40;99.90;;;;;;6277998;22;20153;-84
2023/12/15 06:02:26;;;;;;;48.67;22.43;;;3.40;99.90;;;;;;6277733;22;20498;-85
2023/12/15 06:04:52;;;;;;;42.03;21.13;;;3.40;99.90;;;;;;6277811;22;20517;-86
2023/12/15 06:07:19;;;;;;;49.00;22.50;;;3.40;99.90;;;;;;6277121;22;20598;-83
2023/12/15 06:09:45;;;;;;;48.53;23.10;;;3.40;99.90;;;;;;6277742;22;20577;-85
2023/12/15 06:12:11;;;;;;;52.47;22.10;;;3.40;99.90;;;;;;6278959;22;20173;-84
2023/12/15 06:14:39;;;;;;;53.47;23.90;;;3.40;99.90;;;;;;6277816;22;20478;-85
2023/12/15 06:17:08;;;;;;;49.67;22.73;;;3.40;99.90;;;;;;6277793;22;20160;-84
2023/12/15 06:19:39;;;;;;;48.77;23.33;;;3.50;99.90;;;;;;6277681;22;20210;-84
2023/12/15 06:22:05;;;;;;;51.70;23.00;;;3.40;99.90;;;;;;6277675;22;20152;-85
2023/12/15 06:24:31;;;;;;;48.17;22.63;;;3.50;99.90;;;;;;6277581;22;20176;-85
2023/12/15 06:26:57;;;;;;;52.40;22.47;;;3.50;99.90;;;;;;6277219;22;20195;-85
2023/12/15 06:29:22;;;;;;;46.57;22.37;;;3.50;99.90;;;;;;6277369;22;20515;-85
2023/12/15 06:31:51;;;;;;;51.70;24.00;;;3.50;99.90;;;;;;6277669;22;20192;-85
2023/12/15 06:34:17;;;;;;;51.33;22.20;;;3.50;99.90;;;;;;6277941;22;20155;-84
2023/12/15 06:36:43;;;;;;;53.80;24.10;;;3.50;99.90;;;;;;6277080;22;20206;-84
2023/12/15 06:39:10;;;;;;;50.37;23.17;;;3.60;99.90;;;;;;6277661;22;20164;-84
2023/12/15 06:41:38;;;;;;;54.73;23.27;;;3.50;99.90;;;;;;6277569;22;20527;-85
2023/12/15 06:44:05;;;;;;;49.20;21.97;;;3.50;99.90;;;;;;6277104;22;20164;-84
2023/12/15 06:46:34;;;;;;;52.83;23.93;;;3.60;99.90;;;;;;6277489;22;20531;-85
2023/12/15 06:49:00;;;;;;;57.17;23.73;;;3.60;99.90;;;;;;6277131;22;20156;-84
2023/12/15 06:51:29;;;;;;;56.10;23.97;;;3.60;99.90;;;;;;6276862;22;20167;-84
2023/12/15 06:53:54;;;;;;;52.30;22.90;;;3.60;99.90;;;;;;6277507;22;20156;-84
2023/12/15 06:56:20;;;;;;;55.03;23.20;;;3.60;99.90;;;;;;6277317;22;20148;-84
2023/12/15 06:58:46;;;;;;;59.60;23.93;;;3.60;99.90;;;;;;6276902;22;20235;-85
2023/12/15 07:01:16;;;;;;;56.87;25.00;;;3.60;99.90;;;;;;6276749;22;20160;-85
2023/12/15 07:03:42;;;;;;;60.43;24.30;;;3.60;99.90;;;;;;6277333;22;20515;-84
2023/12/15 07:06:07;;;;;;;53.43;23.60;;;3.70;99.90;;;;;;6276878;22;20160;-85
2023/12/15 07:08:33;;;;;;;62.67;25.33;;;3.60;99.90;;;;;;6278108;22;20157;-85
2023/12/15 07:11:02;;;;;;;59.20;24.50;;;3.60;99.90;;;;;;6277285;22;20157;-85
2023/12/15 07:13:28;;;;;;;57.40;23.90;;;3.70;99.90;;;;;;6276770;22;20180;-85
2023/12/15 07:15:54;;;;;;;54.23;23.90;;;3.70;99.90;;;;;;6276659;22;20148;-85
2023/12/15 07:18:19;;;;;;;63.40;24.67;;;3.70;99.90;;;;;;6276654;22;20160;-84
2023/12/15 07:20:49;;;;;;;59.10;23.70;;;3.70;99.90;;;;;;6276550;22;20162;-85
2023/12/15 07:23:15;;;;;;;59.87;24.33;;;3.70;99.90;;;;;;6277141;22;20152;-86
2023/12/15 07:25:41;;;;;;;56.87;24.83;;;3.80;99.90;;;;;;6276873;22;20161;-85
2023/12/15 07:28:06;;;;;;;59.70;23.83;;;3.80;99.90;;;;;;6281790;22;20529;-85
2023/12/15 07:30:34;;;;;;;61.67;23.47;;;3.80;99.90;;;;;;6282114;22;20164;-85
2023/12/15 07:33:00;;;;;;;57.50;22.50;;;3.80;99.90;;;;;;6282279;22;20564;-86
2023/12/15 07:35:26;;;;;;;57.33;23.83;;;3.80;99.90;;;;;;6282758;22;20167;-85
2023/12/15 07:37:55;;;;;;;57.67;25.57;;;3.80;99.90;;;;;;6282312;22;20229;-85
2023/12/15 07:40:21;;;;;;;65.47;25.10;;;3.80;99.90;;;;;;6282600;22;20225;-85
2023/12/15 07:42:49;;;;;;;58.40;23.77;;;3.80;99.90;;;;;;6281829;22;20602;-85
2023/12/15 07:45:14;;;;;;;56.80;24.53;;;3.80;99.90;;;;;;6282114;22;20198;-85
2023/12/15 07:47:40;;;;;;;62.97;24.60;;;3.90;99.90;;;;;;6282012;22;20160;-85
2023/12/15 07:50:06;;;;;;;57.50;23.73;;;3.90;99.90;;;;;;6282106;22;20175;-84
2023/12/15 07:52:33;;;;;;;65.10;24.10;;;3.90;99.90;;;;;;6282200;22;20194;-84
2023/12/15 07:54:59;;;;;;;63.50;25.23;;;3.90;99.90;;;;;;6282338;22;20162;-85
2023/12/15 07:57:25;;;;;;;58.17;24.10;;;3.90;99.90;;;;;;6282236;22;20217;-85
2023/12/15 07:59:50;;;;;;;58.43;23.47;;;3.80;99.90;;;;;;6281732;22;20160;-86
2023/12/15 08:02:20;;;;;;;68.17;25.93;;;3.90;99.90;;;;;;6281871;22;20156;-85
2023/12/15 08:04:46;;;;;;;58.30;24.93;;;3.90;99.90;;;;;;6284034;22;20156;-85
2023/12/15 08:07:12;;;;;;;59.40;24.60;;;3.90;99.90;;;;;;6283874;22;20159;-85
2023/12/15 08:09:37;;;;;;;58.57;24.33;;;3.90;99.90;;;;;;6283992;22;20160;-84
2023/12/15 08:12:04;;;;;;;58.70;25.07;;;4.00;99.90;;;;;;6283760;22;20595;-84
2023/12/15 08:14:29;;;;;;;63.60;24.90;;;4.00;99.90;;;;;;6283681;22;20153;-86
2023/12/15 08:16:55;;;;;;;67.47;25.23;;;4.00;99.90;;;;;;6283705;22;20159;-86
2023/12/15 08:19:21;;;;;;;62.80;24.80;;;4.00;99.90;;;;;;6284026;22;20160;-85
2023/12/15 08:21:48;;;;;;;65.63;25.73;;;4.00;99.90;;;;;;6284098;22;20578;-85
2023/12/15 08:24:14;;;;;;;70.20;25.27;;;4.00;99.90;;;;;;6283904;22;20144;-86
2023/12/15 08:26:40;;;;;;;64.77;26.03;;;4.00;99.90;;;;;;6283483;22;20205;-86
2023/12/15 08:29:06;;;;;;;58.43;25.20;;;4.10;99.90;;;;;;6283354;22;20168;-84
2023/12/15 08:31:38;;;;;;;61.80;24.77;;;4.10;99.90;;;;;;6311382;22;20191;-85
2023/12/15 08:34:03;;;;;;;71.03;26.27;;;4.10;99.90;;;;;;6284159;22;20171;-84
2023/12/15 08:36:30;;;;;;;72.67;25.60;;;4.10;99.90;;;;;;6283661;22;20156;-85
2023/12/15 08:38:55;;;;;;;61.17;24.97;;;4.10;99.90;;;;;;6284064;22;20466;-83
2023/12/15 08:41:27;;;;;;;71.40;25.40;;;4.10;99.90;;;;;;6283466;22;20156;-85
2023/12/15 08:43:53;;;;;;;71.17;26.73;;;4.20;99.90;;;;;;6283491;22;20160;-85
2023/12/15 08:46:19;;;;;;;71.20;25.20;;;4.20;99.90;;;;;;6283459;22;20582;-85
2023/12/15 08:48:45;;;;;;;65.63;25.67;;;4.20;99.90;;;;;;6283731;22;20183;-85
2023/12/15 08:51:12;;;;;;;66.47;25.07;;;4.20;99.90;;;;;;6283447;22;20152;-84
2023/12/15 08:53:38;;;;;;;67.97;26.20;;;4.30;99.90;;;;;;6283440;22;20188;-84
2023/12/15 08:56:04;;;;;;;66.10;25.53;;;4.20;99.90;;;;;;6283194;22;20163;-85
2023/12/15 08:58:31;;;;;;;67.10;26.17;;;4.30;99.90;;;;;;6283263;22;20160;-84
2023/12/15 09:00:57;;;;;;;70.63;25.07;;;4.30;99.90;;;;;;6283367;22;20213;-85
2023/12/15 09:03:23;;;;;;;65.47;25.07;;;4.40;99.90;;;;;;6283346;22;20152;-85
2023/12/15 09:05:49;;;;;;;62.83;24.73;;;4.40;99.90;;;;;;6283197;22;20517;-85
2023/12/15 09:08:15;;;;;;;64.77;25.73;;;4.40;99.90;;;;;;6283408;22;20457;-86
2023/12/15 09:10:43;;;;;;;65.40;25.97;;;4.40;99.90;;;;;;6283060;22;20155;-85
2023/12/15 09:13:11;;;;;;;66.37;25.10;;;4.40;99.90;;;;;;6282917;22;20278;-85
2023/12/15 09:15:37;;;;;;;59.33;24.83;;;4.50;99.90;;;;;;6310217;22;20147;-85
2023/12/15 09:18:03;;;;;;;66.27;25.67;;;4.50;99.90;;;;;;6283282;22;20160;-84
2023/12/15 09:20:29;;;;;;;68.17;25.93;;;4.50;99.90;;;;;;6310408;22;20209;-86
2023/12/15 09:22:55;;;;;;;71.77;27.37;;;4.60;99.90;;;;;;6283182;22;20160;-85
2023/12/15 09:25:21;;;;;;;74.03;27.07;;;4.70;99.90;;;;;;6283058;22;20163;-85
2023/12/15 09:27:47;;;;;;;70.40;27.20;;;4.70;99.90;;;;;;6277416;22;20200;-85
2023/12/15 09:30:13;;;;;;;67.57;26.87;;;4.70;99.90;;;;;;6278120;22;20240;-85
2023/12/15 09:32:46;;;;;;;71.57;27.23;;;4.80;99.90;;;;;;6279487;22;20585;-89
2023/12/15 09:35:12;;;;;;;67.77;26.77;;;4.90;99.90;;;;;;6277960;22;20153;-84
2023/12/15 09:37:38;;;;;;;70.73;27.63;;;4.90;99.90;;;;;;6279350;22;20563;-86
2023/12/15 09:40:04;;;;;;;66.37;26.73;;;5.00;99.90;;;;;;6279447;22;20464;-87
2023/12/15 09:42:30;;;;;;;78.47;27.43;;;5.00;99.90;;;;;;6277628;22;20160;-85
2023/12/15 09:44:56;;;;;;;66.87;26.57;;;5.10;99.90;;;;;;6279078;22;20145;-84
2023/12/15 09:47:22;;;;;;;65.17;26.17;;;5.10;99.90;;;;;;6277915;22;20164;-84
2023/12/15 09:49:52;;;;;;;69.43;26.63;;;5.20;99.90;;;;;;6277726;22;20152;-84
2023/12/15 09:52:22;;;;;;;69.43;27.90;;;5.20;99.90;;;;;;6277388;22;20191;-85
2023/12/15 09:54:49;;;;;;;65.43;26.50;;;5.20;99.90;;;;;;6277996;22;20156;-86
2023/12/15 09:57:16;;;;;;;62.73;26.03;;;5.30;99.90;;;;;;6277314;22;20164;-85
2023/12/15 09:59:42;;;;;;;61.73;25.60;;;5.30;99.90;;;;;;6277564;22;20512;-86
2023/12/15 10:02:12;;;;;;;50.90;23.93;;;5.30;99.90;;;;;;6278177;22;20184;-84
2023/12/15 10:04:38;;;;;;;56.60;24.83;;;5.40;99.90;;;;;;6277938;22;20186;-85
2023/12/15 10:07:04;;;;;;;51.57;24.50;;;5.40;99.90;;;;;;6278507;22;20176;-86
2023/12/15 10:09:30;;;;;;;58.13;24.47;;;5.40;99.90;;;;;;6278424;22;20551;-85
2023/12/15 10:11:55;;;;;;;56.23;23.97;;;5.40;99.90;;;;;;6277492;22;20227;-86
2023/12/15 10:14:23;;;;;;;51.50;22.60;;;5.40;99.90;;;;;;6277783;22;20206;-87
2023/12/15 10:16:49;;;;;;;48.57;23.00;;;5.40;99.90;;;;;;6277960;22;20152;-90
2023/12/15 10:19:17;;;;;;;53.43;22.60;;;5.40;99.90;;;;;;6279993;22;20152;-87
2023/12/15 10:21:43;;;;;;;44.93;22.10;;;5.50;99.90;;;;;;6278690;22;20172;-85
2023/12/15 10:24:20;;;;;;;40.73;21.50;;;5.40;99.90;;;;;;6278989;22;20145;-86
2023/12/15 10:26:47;;;;;;;48.10;22.30;;;5.50;99.90;;;;;;6281728;22;20144;-87
2023/12/15 10:29:14;;;;;;;45.43;21.07;;;5.50;99.90;;;;;;6282556;22;20156;-86
2023/12/15 10:31:41;;;;;;;47.47;22.20;;;5.50;99.90;;;;;;6282645;22;20159;-85
2023/12/15 10:34:07;;;;;;;55.63;22.37;;;5.50;99.90;;;;;;6282703;22;20160;-85
2023/12/15 10:36:36;;;;;;;44.97;21.77;;;5.50;99.90;;;;;;6282921;22;20213;-86
2023/12/15 10:39:05;;;;;;;48.50;21.87;;;5.50;99.90;;;;;;6283168;22;20163;-85
2023/12/15 10:41:31;;;;;;;47.13;22.07;;;5.50;99.90;;;;;;6282679;22;20207;-86
2023/12/15 10:44:00;;;;;;;46.87;22.07;;;5.60;99.90;;;;;;6282483;22;20155;-85
2023/12/15 10:46:27;;;;;;;53.83;22.63;;;5.70;99.90;;;;;;6309496;22;20140;-85
2023/12/15 10:48:54;;;;;;;52.80;22.80;;;5.80;99.90;;;;;;6309597;22;20504;-85
2023/12/15 10:51:21;;;;;;;52.03;23.47;;;5.80;99.90;;;;;;6282724;22;20152;-86
2023/12/15 10:53:51;;;;;;;48.07;22.43;;;5.90;99.90;;;;;;6281621;22;20195;-86
2023/12/15 10:56:17;;;;;;;53.93;22.73;;;5.90;99.90;;;;;;6309887;22;20132;-86
2023/12/15 10:58:43;;;;;;;49.53;22.60;;;5.90;99.90;;;;;;6282360;22;20209;-86
2023/12/15 11:01:11;;;;;;;49.90;23.00;;;5.90;99.90;;;;;;6282500;22;20499;-85
2023/12/15 11:03:41;;;;;;;53.03;22.07;;;5.90;99.90;;;;;;6282850;22;20433;-86
2023/12/15 11:06:07;;;;;;;52.60;21.77;;;5.90;99.90;;;;;;6282646;22;20534;-85
2023/12/15 11:08:33;;;;;;;43.67;21.30;;;5.80;99.90;;;;;;6282657;22;20152;-85
2023/12/15 11:11:00;;;;;;;51.17;23.67;;;5.90;99.90;;;;;;6309579;22;20175;-86
2023/12/15 11:13:58;;;;;;;51.40;22.40;;;5.90;99.90;;;;;;6282398;22;20226;-85
2023/12/15 11:16:26;;;;;;;50.20;22.17;;;5.90;99.90;;;;;;6281880;22;20159;-83
2023/12/15 11:18:55;;;;;;;54.60;23.00;;;5.80;99.90;;;;;;6282402;22;20217;-85
2023/12/15 11:21:20;;;;;;;53.80;24.23;;;5.90;99.90;;;;;;6282344;22;20598;-85
2023/12/15 11:24:04;;;;;;;55.87;24.17;;;6.00;99.90;;;;;;6282392;22;20156;-86
2023/12/15 11:26:33;;;;;;;55.33;22.67;;;6.00;99.90;;;;;;6282063;22;20152;-85
2023/12/15 11:29:15;;;;;;;54.30;23.10;;;5.90;99.90;;;;;;6309370;22;20210;-86
2023/12/15 11:31:40;;;;;;;49.97;22.13;;;5.90;99.90;;;;;;6282283;22;20181;-85
2023/12/15 11:34:09;;;;;;;55.33;23.43;;;5.90;99.90;;;;;;6309683;22;20152;-86
2023/12/15 11:36:44;;;;;;;47.30;22.20;;;6.00;99.90;;;;;;6282116;22;20152;-85
2023/12/15 11:39:15;;;;;;;51.63;23.00;;;6.00;99.90;;;;;;6311039;22;20189;-84
2023/12/15 11:41:42;;;;;;;55.57;22.37;;;6.00;99.90;;;;;;6283576;22;20148;-84
2023/12/15 11:44:15;;;;;;;50.47;22.40;;;6.00;99.90;;;;;;6283884;22;20167;-86
2023/12/15 11:46:41;;;;;;;54.03;23.67;;;6.00;99.90;;;;;;6284112;22;20175;-85
2023/12/15 11:49:08;;;;;;;51.53;22.23;;;6.00;99.90;;;;;;6284221;22;20156;-86
2023/12/15 11:51:34;;;;;;;49.07;22.23;;;6.00;99.90;;;;;;6283948;22;20152;-86
2023/12/15 11:54:02;;;;;;;52.10;22.90;;;6.00;99.90;;;;;;6284443;22;20209;-86
2023/12/15 11:56:28;;;;;;;59.33;24.30;;;6.00;99.90;;;;;;6284247;22;20183;-85
2023/12/15 11:58:54;;;;;;;57.87;22.33;;;6.00;99.90;;;;;;6283769;22;20471;-86
2023/12/15 12:01:19;;;;;;;57.20;24.23;;;6.10;99.90;;;;;;6284006;22;20186;-85
2023/12/15 12:03:47;;;;;;;48.83;21.83;;;6.10;99.90;;;;;;6283751;22;20243;-84
2023/12/15 12:06:20;;;;;;;56.20;22.87;;;6.20;99.90;;;;;;6311219;22;20141;-85
2023/12/15 12:08:46;;;;;;;51.07;21.53;;;6.20;99.90;;;;;;6284332;22;20586;-86
2023/12/15 12:11:12;;;;;;;48.97;21.07;;;6.20;99.90;;;;;;6283949;22;20151;-86
2023/12/15 12:13:39;;;;;;;47.73;22.97;;;6.20;99.90;;;;;;6283709;22;20183;-87
2023/12/15 12:16:08;;;;;;;51.87;23.17;;;6.20;99.90;;;;;;6283783;22;20551;-84
2023/12/15 12:18:34;;;;;;;56.57;22.93;;;6.20;99.90;;;;;;6283898;22;20152;-85
2023/12/15 12:21:05;;;;;;;46.60;20.60;;;6.30;99.90;;;;;;6284044;22;20156;-85
2023/12/15 12:23:32;;;;;;;39.30;19.70;;;6.30;99.90;;;;;;6283923;22;20155;-85
2023/12/15 12:25:59;;;;;;;54.40;21.47;;;6.30;99.90;;;;;;6283872;22;20156;-84
2023/12/15 12:28:25;;;;;;;58.50;22.00;;;6.20;99.90;;;;;;6310381;22;20231;-85
2023/12/15 12:30:51;;;;;;;54.40;23.00;;;6.30;99.90;;;;;;6283393;22;20183;-84
2023/12/15 12:33:19;;;;;;;51.47;21.97;;;6.20;99.90;;;;;;6283313;22;20184;-86
2023/12/15 12:35:46;;;;;;;54.80;22.37;;;6.30;99.90;;;;;;6283714;22;20159;-84
2023/12/15 12:38:11;;;;;;;50.93;21.37;;;6.30;99.90;;;;;;6283588;22;20152;-85